Rock Spring, GA (30739)

6:44 PM EST on February 06, 2016 (GMT -0500)
Rock Spring WE4S | | Change Station
CLOSE
Current Station
Personal Weather Station
Location: Rock Spring, GA
Elevation: 870 ft
Nearby Weather Stations

Elev 870 ft 34.86 °N, 85.22 °W | Updated 164 days ago

Partly Cloudy
Partly Cloudy
39 °F
Feels Like 39 °F
N
2
Wind Variable Wind from NNW
Gusts mph

Today
High -- | Low -- °F
--% Chance of Precip.
Yesterday
High -- | Low -- °F
Precip. -- in
Pressure 30.29 in
Visibility 10.0 miles
Clouds Scattered Clouds 6000 ft
Scattered Clouds 12000 ft
Mostly Cloudy 20000 ft
Mostly Cloudy 25000 ft
Dew Point 24 °F
Humidity 56%
Rainfall in
Snow Depth Not available.
7:36 AM 6:14 PM
Waning Crescent, 3% visible
METAR KCHA 062253Z 01009KT 10SM SCT060 SCT120 BKN200 BKN250 08/M09 A3028 RMK AO2 SLP257 T00831089
Pressure 30.29 in
Visibility 10.0 miles
Clouds Scattered Clouds 6000 ft
Scattered Clouds 12000 ft
Mostly Cloudy 20000 ft
Mostly Cloudy 25000 ft
Dew Point 24 °F
Humidity 56%
Rainfall in
Snow Depth Not available.
7:36 AM 6:14 PM
Waning Crescent, 3% visible
METAR KCHA 062253Z 01009KT 10SM SCT060 SCT120 BKN200 BKN250 08/M09 A3028 RMK AO2 SLP257 T00831089

10-Day Weather Forecast

Almanac

Astronomy

Feb. 06, 2016 Rise Set
Actual Time
Civil Twilight
Nautical Twilight
Astronomical Twilight
Moon
Length of Visible Light
Length of Day
Tomorrow will be .
, % of the Moon is Illuminated

Today's Extremes

State Highs State Lows

Community

WunderPhotos

Upload Photos

1,891,098 photos uploaded!

WunderBlog® & News

Nearby

Air Quality

  Air Quality AQ Index Pollutant
Not available.

Snow Depth

Station Depth Elevation

Earthquake Activity

City Distance Mag. Time & Date
Minimum magnitude displayed is 2.5.

Coastal Water Temperatures

Place Temperature

Stations

Nearby Weather Stations

Station Location Temp. Windchill Dew Point Humidity Wind Precip. Elev Updated Type
                   

Watches & Warnings

There are currently no watches in effect.